Time;durP1;ratioP1;P1;durP2;ratioP2;P2;SDS_P1;SDS_P2;PMS_P1;PMS_P2;Temp;Humidity;BMP_temperature;BMP_pressure;BME280_temperature;BME280_humidity;BME280_pressure;Samples;Min_cycle;Max_cycle;Signal;HPM_P1;HPM_P2
2021/08/07 00:00:12;;;;;;;4.30;3.13;;;;;;;17.32;84.90;96935.94;5097246;27;20028;-75
2021/08/07 00:02:37;;;;;;;4.35;3.20;;;;;;;17.29;85.04;96936.22;5119138;27;20559;-76
2021/08/07 00:05:04;;;;;;;3.15;2.90;;;;;;;17.23;84.39;96935.97;5130030;27;20033;-75
2021/08/07 00:07:29;;;;;;;5.93;3.05;;;;;;;17.24;85.50;96921.47;5116781;27;20031;-75
2021/08/07 00:09:55;;;;;;;4.50;3.10;;;;;;;17.30;85.81;96937.09;5119693;27;20034;-76
2021/08/07 00:12:20;;;;;;;4.43;3.25;;;;;;;17.27;85.20;96935.53;5119485;27;20031;-76
2021/08/07 00:14:46;;;;;;;3.88;3.20;;;;;;;17.32;84.76;96938.63;5125328;27;20026;-75
2021/08/07 00:17:12;;;;;;;3.40;2.90;;;;;;;17.28;84.73;96936.41;5125314;27;20027;-75
2021/08/07 00:19:37;;;;;;;5.97;3.30;;;;;;;17.31;84.41;96942.34;5107761;27;20110;-76
2021/08/07 00:22:04;;;;;;;3.90;3.10;;;;;;;17.31;83.23;96927.97;5130860;27;20470;-75
2021/08/07 00:24:30;;;;;;;3.85;3.20;;;;;;;17.27;83.74;96934.69;5126322;27;20050;-75
2021/08/07 00:26:55;;;;;;;7.70;3.10;;;;;;;17.38;83.54;96941.75;5110094;28;20486;-75
2021/08/07 00:29:21;;;;;;;7.60;2.92;;;;;;;17.33;84.23;96944.88;5119005;28;20122;-76
2021/08/07 00:31:47;;;;;;;7.03;3.00;;;;;;;17.35;84.11;96941.03;5132075;27;20536;-75
2021/08/07 00:34:12;;;;;;;9.20;3.20;;;;;;;17.38;84.87;96947.97;5132138;27;20031;-75
2021/08/07 00:36:38;;;;;;;4.28;3.03;;;;;;;17.23;86.14;96946.78;5124541;27;20535;-75
2021/08/07 00:39:03;;;;;;;3.78;3.20;;;;;;;17.16;85.56;96933.06;5099196;28;20092;-75
2021/08/07 00:41:29;;;;;;;4.90;3.45;;;;;;;17.27;86.30;96959.00;5122148;28;20138;-75
2021/08/07 00:43:54;;;;;;;4.65;3.28;;;;;;;17.16;86.77;96945.72;5124990;28;20019;-75
2021/08/07 00:46:20;;;;;;;10.10;3.75;;;;;;;17.13;86.58;96935.19;5119209;28;20032;-75
2021/08/07 00:48:45;;;;;;;3.95;3.50;;;;;;;17.21;86.97;96941.56;5132874;27;20057;-75
2021/08/07 00:51:12;;;;;;;3.90;3.28;;;;;;;17.34;86.99;96957.41;5126307;27;20062;-75
2021/08/07 00:53:37;;;;;;;6.65;3.50;;;;;;;17.32;86.56;96951.28;5121438;27;20024;-75
2021/08/07 00:56:03;;;;;;;8.90;4.43;;;;;;;17.30;86.71;96958.72;5132078;27;20019;-75
2021/08/07 00:58:29;;;;;;;10.93;3.58;;;;;;;17.28;86.59;96955.31;5135571;27;20087;-75
2021/08/07 01:00:55;;;;;;;5.00;3.42;;;;;;;17.31;85.70;96960.44;5107637;28;20110;-75
2021/08/07 01:03:34;;;;;;;4.95;3.53;;;;;;;17.32;86.31;96962.09;5130176;27;20023;-76
2021/08/07 01:06:57;;;;;;;8.68;3.78;;;;;;;17.27;86.75;96964.41;5114133;28;20028;-75
2021/08/07 01:09:49;;;;;;;;;;;;;;;17.26;85.44;96968.13;5085099;28;20115;-75
2021/08/07 01:12:26;;;;;;;10.82;3.92;;;;;;;17.16;86.82;96978.16;5112845;27;19915;-75
2021/08/07 01:14:54;;;;;;;7.95;3.60;;;;;;;17.08;87.47;96965.38;5122533;27;20073;-75
2021/08/07 01:17:24;;;;;;;7.20;3.78;;;;;;;16.92;87.24;96954.34;5129274;27;20020;-75
2021/08/07 01:20:14;;;;;;;4.68;3.72;;;;;;;16.87;88.05;96958.50;5108345;27;20059;-75
2021/08/07 01:23:00;;;;;;;4.05;3.65;;;;;;;16.82;87.86;96958.94;5100698;27;20409;-76
2021/08/07 01:25:36;;;;;;;7.07;3.58;;;;;;;16.67;88.37;96953.16;5128418;27;20103;-76
2021/08/07 01:28:02;;;;;;;5.22;3.38;;;;;;;16.73;88.78;96966.06;5122295;27;20398;-76
2021/08/07 01:30:28;;;;;;;4.30;3.78;;;;;;;16.64;88.78;96969.66;5121332;27;20022;-76
2021/08/07 01:32:55;;;;;;;16.02;3.83;;;;;;;16.52;90.64;96962.69;5135096;27;20035;-76
2021/08/07 01:35:21;;;;;;;6.28;3.50;;;;;;;16.45;90.84;96961.59;5122574;27;20032;-76
2021/08/07 01:37:46;;;;;;;5.53;3.22;;;;;;;16.39;90.95;96958.63;5127973;27;20108;-76
2021/08/07 01:40:12;;;;;;;3.63;3.33;;;;;;;16.25;90.56;96952.66;5125479;27;20042;-75
2021/08/07 01:42:38;;;;;;;4.60;3.95;;;;;;;16.29;92.29;96972.13;5119412;27;20092;-76
2021/08/07 01:45:04;;;;;;;5.15;3.95;;;;;;;16.10;91.87;96945.16;5123993;27;20019;-75
2021/08/07 01:47:43;;;;;;;4.70;4.20;;;;;;;16.29;92.36;96977.53;5126432;27;20027;-76
2021/08/07 01:50:13;;;;;;;4.40;4.00;;;;;;;16.29;92.26;96988.31;5101671;28;20035;-75
2021/08/07 01:52:43;;;;;;;7.18;4.70;;;;;;;16.25;92.83;96976.09;5130281;27;20039;-75
2021/08/07 01:55:19;;;;;;;5.70;4.00;;;;;;;16.13;93.79;96959.22;5110439;28;20060;-76
2021/08/07 01:57:54;;;;;;;4.65;4.25;;;;;;;16.14;93.62;96960.06;5121508;27;20026;-76
2021/08/07 02:00:21;;;;;;;5.70;4.30;;;;;;;16.15;93.06;96962.59;5118374;27;20023;-76
2021/08/07 02:02:47;;;;;;;9.57;5.35;;;;;;;16.20;93.92;96968.44;5134644;27;20019;-76
2021/08/07 02:05:13;;;;;;;7.90;4.40;;;;;;;16.16;93.65;96964.31;5103142;28;20104;-75
2021/08/07 02:07:38;;;;;;;4.93;4.40;;;;;;;16.15;93.92;96959.09;5123890;27;20076;-75
2021/08/07 02:10:05;;;;;;;10.00;4.45;;;;;;;16.21;93.55;96974.69;5106846;28;20027;-76
2021/08/07 02:12:31;;;;;;;7.45;4.55;;;;;;;16.13;94.43;96970.00;5119728;27;20034;-76
2021/08/07 02:14:57;;;;;;;7.22;4.38;;;;;;;16.07;94.83;96972.41;5125573;27;20023;-76
2021/08/07 02:17:23;;;;;;;5.82;4.82;;;;;;;15.96;95.74;96959.94;5134472;27;20083;-76
2021/08/07 02:19:48;;;;;;;7.55;4.38;;;;;;;15.97;94.97;96960.78;5124648;27;20023;-76
2021/08/07 02:22:17;;;;;;;6.70;4.18;;;;;;;15.76;96.49;96968.16;5125921;27;20103;-76
2021/08/07 02:24:43;;;;;;;6.88;4.20;;;;;;;15.71;96.06;96950.56;5117914;27;20032;-76
2021/08/07 02:27:09;;;;;;;11.80;4.10;;;;;;;15.65;96.34;96947.59;5121471;27;20098;-76
2021/08/07 02:29:34;;;;;;;5.45;3.70;;;;;;;15.58;96.25;96952.69;5130296;27;20072;-76
2021/08/07 02:32:01;;;;;;;4.63;3.90;;;;;;;15.63;97.18;96955.81;5129975;27;20565;-76
2021/08/07 02:34:28;;;;;;;10.35;4.22;;;;;;;15.57;97.82;96942.03;5130248;27;20109;-76
2021/08/07 02:36:55;;;;;;;5.32;3.88;;;;;;;15.72;97.85;96954.09;5125930;27;20065;-76
2021/08/07 02:39:21;;;;;;;5.75;4.10;;;;;;;15.70;98.44;96965.03;5108113;28;20036;-76
2021/08/07 02:41:47;;;;;;;4.95;3.90;;;;;;;15.57;98.82;96948.28;5126180;27;20030;-76
2021/08/07 02:44:14;;;;;;;9.32;4.13;;;;;;;15.61;100.00;96954.25;5120458;27;20028;-76
2021/08/07 02:46:40;;;;;;;4.82;4.15;;;;;;;15.59;99.30;96957.09;5127708;27;20126;-74
2021/08/07 02:49:06;;;;;;;5.20;4.18;;;;;;;15.66;99.11;96955.53;5126716;27;20047;-77
2021/08/07 02:51:32;;;;;;;6.15;4.50;;;;;;;15.73;98.57;96967.47;5127063;27;20436;-76
2021/08/07 02:53:58;;;;;;;8.57;4.88;;;;;;;15.72;99.30;96952.25;5122797;27;20023;-76
2021/08/07 02:56:24;;;;;;;6.03;5.43;;;;;;;15.82;99.40;96964.88;5122243;27;20027;-74
2021/08/07 02:58:50;;;;;;;14.68;5.30;;;;;;;15.80;99.90;96965.06;5118412;27;20032;-76
2021/08/07 03:01:15;;;;;;;8.48;5.15;;;;;;;15.83;99.71;96964.75;5123300;27;20033;-76
2021/08/07 03:03:41;;;;;;;12.25;5.97;;;;;;;15.84;99.34;96968.31;5108186;27;20091;-76
2021/08/07 03:06:06;;;;;;;9.38;5.00;;;;;;;15.88;98.51;96975.97;5113081;27;20562;-76
2021/08/07 03:08:32;;;;;;;7.10;4.60;;;;;;;15.91;98.25;96972.13;5125508;27;20023;-76
2021/08/07 03:10:58;;;;;;;8.18;4.47;;;;;;;15.78;99.14;96972.41;5107670;28;20054;-76
2021/08/07 03:13:23;;;;;;;6.78;4.25;;;;;;;15.77;99.28;96969.88;5105379;28;20028;-76
2021/08/07 03:15:49;;;;;;;17.90;5.00;;;;;;;15.69;99.16;96978.66;5124731;27;20038;-76
2021/08/07 03:18:14;;;;;;;6.53;4.03;;;;;;;15.70;98.77;96988.44;5132989;27;20552;-76
2021/08/07 03:20:40;;;;;;;6.20;3.95;;;;;;;15.68;99.95;96979.66;5133134;27;20054;-76
2021/08/07 03:23:07;;;;;;;10.68;4.00;;;;;;;15.66;97.80;96985.19;5120181;27;20019;-76
2021/08/07 03:25:34;;;;;;;7.55;4.20;;;;;;;15.47;97.91;96977.06;5108346;28;20038;-76
2021/08/07 03:28:01;;;;;;;6.93;4.13;;;;;;;15.46;98.08;96982.56;5122632;27;20075;-76
2021/08/07 03:30:27;;;;;;;6.38;4.20;;;;;;;15.51;99.11;96989.28;5108584;27;20445;-76
2021/08/07 03:32:53;;;;;;;4.03;3.63;;;;;;;15.46;98.66;96988.81;5115825;27;20025;-76
2021/08/07 03:35:19;;;;;;;5.28;4.07;;;;;;;15.54;98.55;97002.47;5122984;27;20028;-76
2021/08/07 03:37:44;;;;;;;9.43;4.30;;;;;;;15.51;98.86;97002.75;5114443;27;20039;-76
2021/08/07 03:40:11;;;;;;;10.07;4.00;;;;;;;15.41;99.74;96999.13;5128624;27;20481;-76
2021/08/07 03:42:37;;;;;;;11.90;4.43;;;;;;;15.41;99.77;97001.84;5125848;27;20444;-76
2021/08/07 03:45:05;;;;;;;9.30;5.95;;;;;;;15.42;99.55;97011.63;5119916;27;20529;-75
2021/08/07 03:47:30;;;;;;;6.18;4.20;;;;;;;15.54;99.09;97017.78;5125684;27;20018;-74
2021/08/07 03:49:56;;;;;;;11.82;4.28;;;;;;;15.58;98.66;97025.47;5109852;27;20049;-75
2021/08/07 03:52:22;;;;;;;4.70;4.25;;;;;;;15.47;98.47;97006.69;5122625;27;20026;-75
2021/08/07 03:54:47;;;;;;;5.05;4.25;;;;;;;15.40;98.92;97010.94;5105418;27;20531;-75
2021/08/07 03:57:13;;;;;;;9.43;4.53;;;;;;;15.41;98.78;97018.00;5130907;27;20540;-75
2021/08/07 03:59:38;;;;;;;5.88;4.50;;;;;;;15.50;98.56;97028.03;5125601;27;20035;-75
2021/08/07 04:02:04;;;;;;;6.50;4.40;;;;;;;15.52;97.55;97026.03;5118345;27;20035;-75
2021/08/07 04:04:29;;;;;;;6.68;4.57;;;;;;;15.60;97.81;97028.88;5119466;27;20018;-75
2021/08/07 04:06:55;;;;;;;6.88;4.43;;;;;;;15.77;97.35;97029.19;5121607;27;20077;-75
2021/08/07 04:09:21;;;;;;;8.32;4.45;;;;;;;15.94;96.55;97036.59;5123518;27;20020;-75
2021/08/07 04:11:46;;;;;;;6.60;4.60;;;;;;;15.82;97.47;97024.22;5122679;27;20031;-75
2021/08/07 04:14:12;;;;;;;7.28;4.50;;;;;;;15.79;97.95;97041.53;5107730;27;20065;-75
2021/08/07 04:16:38;;;;;;;6.32;4.93;;;;;;;15.69;97.44;97022.66;5121256;27;20030;-75
2021/08/07 04:19:04;;;;;;;8.88;6.03;;;;;;;15.81;97.34;97039.56;5123769;27;20026;-75
2021/08/07 04:21:29;;;;;;;4.93;4.43;;;;;;;15.82;97.18;97035.00;5122287;27;20038;-75
2021/08/07 04:23:55;;;;;;;11.63;4.97;;;;;;;16.89;91.16;97051.06;5119402;27;20031;-75
2021/08/07 04:26:21;;;;;;;4.88;3.95;;;;;;;17.62;84.17;97052.94;5119318;27;20513;-75
2021/08/07 04:28:46;;;;;;;7.70;4.00;;;;;;;17.28;85.03;97044.53;5132181;27;20019;-75
2021/08/07 04:31:12;;;;;;;5.15;4.15;;;;;;;17.77;82.44;97044.16;5128252;28;20054;-81
2021/08/07 04:33:37;;;;;;;4.53;3.63;;;;;;;18.13;81.66;97050.47;5107945;28;20023;-74
2021/08/07 04:36:04;;;;;;;5.88;3.97;;;;;;;17.73;82.14;97055.44;5131757;27;20110;-75
2021/08/07 04:38:30;;;;;;;8.05;4.05;;;;;;;17.55;83.81;97066.22;5097077;28;20036;-74
2021/08/07 04:40:56;;;;;;;8.57;4.68;;;;;;;17.43;85.09;97058.41;5118846;28;20047;-74
2021/08/07 04:43:21;;;;;;;6.18;3.95;;;;;;;17.39;85.39;97057.84;5098275;28;20483;-79
2021/08/07 04:45:47;;;;;;;18.95;4.35;;;;;;;17.47;85.66;97063.38;5129749;28;20075;-75
2021/08/07 04:48:13;;;;;;;6.00;4.35;;;;;;;17.42;85.46;97052.13;5120648;28;20088;-79
2021/08/07 04:50:39;;;;;;;14.73;4.05;;;;;;;17.48;86.34;97059.66;5106339;28;20421;-76
2021/08/07 04:53:05;;;;;;;4.80;4.00;;;;;;;17.60;84.53;97063.91;5121139;28;20031;-77
2021/08/07 04:55:31;;;;;;;5.75;3.90;;;;;;;17.61;84.57;97079.13;5110768;28;20027;-77
2021/08/07 04:57:57;;;;;;;6.55;4.28;;;;;;;17.78;83.62;97080.19;5103137;28;20490;-76
2021/08/07 05:00:23;;;;;;;13.02;5.05;;;;;;;17.77;84.51;97057.69;5129845;28;20073;-75
2021/08/07 05:02:49;;;;;;;5.18;3.40;;;;;;;18.00;83.00;97071.63;5130858;28;20027;-76
2021/08/07 05:05:15;;;;;;;16.23;4.65;;;;;;;18.04;82.14;97074.91;5105147;28;20535;-75
2021/08/07 05:07:42;;;;;;;6.13;4.22;;;;;;;18.15;82.19;97067.41;5130574;28;20052;-76
2021/08/07 05:10:09;;;;;;;4.80;3.90;;;;;;;18.29;80.59;97076.84;5124263;28;20024;-75
2021/08/07 05:12:35;;;;;;;10.75;4.78;;;;;;;18.38;81.01;97076.78;5128784;28;20023;-76
2021/08/07 05:15:01;;;;;;;5.80;3.75;;;;;;;18.59;78.52;97072.94;5117168;28;20019;-75
2021/08/07 05:17:27;;;;;;;7.35;3.75;;;;;;;18.82;77.35;97090.41;5118980;28;20503;-75
2021/08/07 05:19:53;;;;;;;21.02;4.10;;;;;;;18.93;77.37;97090.16;5122125;28;20378;-76
2021/08/07 05:22:19;;;;;;;7.75;4.00;;;;;;;19.00;76.80;97087.66;5114484;28;20026;-76
2021/08/07 05:24:44;;;;;;;8.18;3.90;;;;;;;19.22;75.48;97098.84;5129776;28;20031;-75
2021/08/07 05:27:10;;;;;;;6.97;4.30;;;;;;;19.37;73.87;97082.81;5130567;28;20023;-76
2021/08/07 05:29:36;;;;;;;11.82;3.58;;;;;;;20.07;71.20;97094.38;5130375;28;20034;-75
2021/08/07 05:32:02;;;;;;;7.13;3.53;;;;;;;22.19;63.36;97119.44;5117110;28;20057;-76
2021/08/07 05:34:27;;;;;;;8.63;4.07;;;;;;;24.56;53.56;97111.47;5119392;27;20062;-76
2021/08/07 05:36:53;;;;;;;4.65;3.58;;;;;;;26.37;47.90;97139.81;5104780;28;20410;-76
2021/08/07 05:39:18;;;;;;;5.65;3.13;;;;;;;28.43;43.02;97144.28;5131145;27;20107;-76
2021/08/07 05:41:44;;;;;;;6.22;3.78;;;;;;;28.75;41.62;97147.16;5135259;27;20038;-76
2021/08/07 05:44:09;;;;;;;5.00;3.50;;;;;;;29.10;40.22;97133.84;5135568;27;20023;-76
2021/08/07 05:46:35;;;;;;;5.30;3.17;;;;;;;30.68;37.37;97131.38;5135315;27;20537;-76
2021/08/07 05:49:00;;;;;;;6.85;3.00;;;;;;;30.36;37.35;97130.69;5105086;28;20023;-76
2021/08/07 05:51:26;;;;;;;3.38;2.80;;;;;;;31.06;36.28;97136.66;5131585;27;20111;-77
2021/08/07 05:53:53;;;;;;;7.60;3.10;;;;;;;32.82;33.21;97131.91;5125382;27;20022;-77
2021/08/07 05:56:18;;;;;;;4.35;3.03;;;;;;;34.02;31.39;97137.22;5125387;27;20026;-77
2021/08/07 05:58:44;;;;;;;7.90;3.00;;;;;;;34.24;30.40;97144.53;5116614;27;20027;-74
2021/08/07 06:01:10;;;;;;;7.38;2.80;;;;;;;34.82;29.65;97138.44;5119600;27;20023;-75
2021/08/07 06:03:35;;;;;;;5.60;2.60;;;;;;;35.82;28.42;97131.50;5122323;27;20023;-75
2021/08/07 06:06:01;;;;;;;6.35;2.60;;;;;;;34.33;30.13;97144.97;5135095;27;20075;-75
2021/08/07 06:08:28;;;;;;;6.03;2.90;;;;;;;35.45;28.97;97145.34;5125212;27;20027;-75
2021/08/07 06:10:55;;;;;;;6.40;2.95;;;;;;;36.82;27.68;97144.53;5124732;27;20019;-76
2021/08/07 06:13:21;;;;;;;5.93;2.60;;;;;;;37.18;26.62;97142.75;5133644;27;20355;-76
2021/08/07 06:15:47;;;;;;;6.60;2.47;;;;;;;37.36;26.86;97139.44;5134527;27;20109;-77
2021/08/07 06:18:12;;;;;;;6.38;2.72;;;;;;;37.64;26.38;97138.97;5133302;27;20115;-76
2021/08/07 06:20:38;;;;;;;8.70;2.63;;;;;;;38.16;25.93;97146.28;5116015;27;20061;-76
2021/08/07 06:23:04;;;;;;;3.95;2.90;;;;;;;37.01;27.01;97144.94;5129089;27;20026;-77
2021/08/07 06:25:29;;;;;;;10.60;3.13;;;;;;;38.08;25.80;97144.91;5120738;27;20453;-76
2021/08/07 06:27:56;;;;;;;23.83;3.58;;;;;;;38.64;25.14;97142.88;5116130;27;20069;-76
2021/08/07 06:30:22;;;;;;;15.57;2.88;;;;;;;40.05;23.43;97133.81;5117796;27;20023;-76
2021/08/07 06:32:48;;;;;;;37.40;4.47;;;;;;;40.87;22.94;97133.84;5113910;27;20023;-77
2021/08/07 06:35:14;;;;;;;41.70;5.47;;;;;;;41.16;22.56;97147.88;5133128;27;20041;-76
2021/08/07 06:37:39;;;;;;;18.08;3.88;;;;;;;41.82;21.56;97147.81;5124293;27;20048;-76
2021/08/07 06:40:05;;;;;;;3.92;1.83;;;;;;;40.24;22.35;97155.53;5103298;28;20394;-76
2021/08/07 06:42:31;;;;;;;5.03;2.13;;;;;;;40.47;21.74;97149.13;5112500;28;20525;-76
2021/08/07 06:44:56;;;;;;;4.78;1.83;;;;;;;40.45;21.98;97157.03;5133300;27;20023;-76
2021/08/07 06:47:22;;;;;;;2.95;2.40;;;;;;;40.00;22.72;97150.66;5100482;28;20030;-76
2021/08/07 06:49:48;;;;;;;25.83;2.35;;;;;;;40.16;22.10;97151.38;5122257;27;20079;-76
2021/08/07 06:52:13;;;;;;;2.83;1.60;;;;;;;40.99;21.38;97148.34;5124376;27;20088;-76
2021/08/07 06:54:39;;;;;;;1.40;1.30;;;;;;;40.91;20.83;97154.59;5098518;28;20088;-76
2021/08/07 06:57:04;;;;;;;9.80;1.90;;;;;;;41.25;21.07;97157.28;5120415;27;20031;-76
2021/08/07 06:59:30;;;;;;;9.13;2.00;;;;;;;41.30;21.22;97172.09;5112302;28;20084;-76
2021/08/07 07:01:56;;;;;;;2.40;1.50;;;;;;;41.54;21.20;97169.28;5131014;27;20030;-76
2021/08/07 07:04:21;;;;;;;37.22;3.35;;;;;;;41.15;21.67;97166.69;5100928;28;20026;-76
2021/08/07 07:06:47;;;;;;;18.85;2.80;;;;;;;41.07;21.84;97176.59;5131327;27;20019;-76
2021/08/07 07:09:12;;;;;;;1.58;1.40;;;;;;;39.92;22.04;97165.31;5133620;27;20464;-76
2021/08/07 07:11:38;;;;;;;72.03;3.65;;;;;;;39.88;22.49;97149.34;5111862;28;20050;-76
2021/08/07 07:14:04;;;;;;;17.42;2.90;;;;;;;40.27;21.57;97157.75;5114775;27;20414;-76
2021/08/07 07:16:30;;;;;;;4.50;1.98;;;;;;;40.76;21.08;97150.00;5132210;27;20062;-76
2021/08/07 07:18:59;;;;;;;3.58;2.03;;;;;;;41.04;20.98;97139.88;5123511;27;20051;-77
2021/08/07 07:21:25;;;;;;;1.70;1.27;;;;;;;40.71;21.06;97150.03;5132035;27;20146;-76
2021/08/07 07:23:50;;;;;;;11.65;2.10;;;;;;;40.70;21.39;97144.75;5123371;27;20068;-76
2021/08/07 07:26:16;;;;;;;6.72;2.40;;;;;;;42.08;19.77;97154.72;5111778;27;20031;-77
2021/08/07 07:28:41;;;;;;;6.22;1.80;;;;;;;40.93;20.82;97146.69;5120306;27;20375;-77
2021/08/07 07:31:07;;;;;;;2.25;1.52;;;;;;;40.26;21.45;97140.09;5123193;27;20037;-77
2021/08/07 07:33:32;;;;;;;5.63;1.58;;;;;;;41.53;20.28;97157.19;5132000;27;20069;-77
2021/08/07 07:35:58;;;;;;;7.80;2.35;;;;;;;39.72;21.59;97140.22;5114761;27;20023;-76
2021/08/07 07:38:25;;;;;;;2.28;1.38;;;;;;;40.90;20.80;97145.31;5132900;27;20043;-77
2021/08/07 07:40:52;;;;;;;2.72;1.70;;;;;;;41.44;20.48;97150.56;5114870;27;20022;-77
2021/08/07 07:43:19;;;;;;;2.75;1.92;;;;;;;41.17;20.50;97146.69;5127405;27;20041;-77
2021/08/07 07:45:45;;;;;;;3.67;1.98;;;;;;;39.62;22.31;97142.22;5129316;27;20401;-77
2021/08/07 07:48:10;;;;;;;2.80;1.40;;;;;;;40.27;21.92;97143.75;5119926;27;20024;-77
2021/08/07 07:50:36;;;;;;;3.80;2.03;;;;;;;40.97;20.68;97150.63;5119819;27;20410;-77
2021/08/07 07:53:02;;;;;;;13.13;2.38;;;;;;;41.34;20.33;97158.28;5123317;27;20035;-77
2021/08/07 07:55:27;;;;;;;5.90;2.47;;;;;;;42.12;20.14;97167.00;5123229;27;20031;-77
2021/08/07 07:58:00;;;;;;;1.88;1.67;;;;;;;40.42;21.39;97152.84;5111380;28;20027;-77
2021/08/07 08:00:26;;;;;;;6.05;1.70;;;;;;;39.39;22.24;97158.59;5109068;28;20076;-77
2021/08/07 08:02:52;;;;;;;2.35;1.65;;;;;;;40.04;21.45;97157.34;5111296;28;20085;-76
2021/08/07 08:05:18;;;;;;;4.78;1.63;;;;;;;40.63;21.17;97170.34;5102563;28;20023;-76
2021/08/07 08:07:43;;;;;;;2.78;1.95;;;;;;;41.18;20.11;97166.06;5128612;27;20567;-77
2021/08/07 08:10:11;;;;;;;17.77;3.45;;;;;;;40.15;21.42;97160.13;5122830;27;20123;-76
2021/08/07 08:12:38;;;;;;;1.92;1.73;;;;;;;39.85;21.45;97163.94;5111060;28;20054;-77
2021/08/07 08:15:05;;;;;;;5.63;2.30;;;;;;;40.03;21.31;97164.06;5129693;27;20034;-77
2021/08/07 08:17:31;;;;;;;4.50;2.22;;;;;;;40.61;20.87;97160.53;5131459;27;20031;-77
2021/08/07 08:19:56;;;;;;;7.13;1.52;;;;;;;41.36;19.16;97159.69;5132519;27;20030;-77
2021/08/07 08:22:22;;;;;;;10.85;2.42;;;;;;;40.71;19.68;97161.25;5109759;28;20051;-76
2021/08/07 08:24:47;;;;;;;3.25;1.58;;;;;;;39.14;20.58;97149.44;5127157;27;20027;-76
2021/08/07 08:27:18;;;;;;;2.10;1.60;;;;;;;40.43;19.48;97148.03;5131069;27;20022;-77
2021/08/07 08:29:44;;;;;;;2.33;1.90;;;;;;;40.54;19.24;97164.53;5107468;28;20031;-77
2021/08/07 08:32:10;;;;;;;6.25;2.60;;;;;;;41.28;18.90;97162.31;5130085;28;20058;-76
2021/08/07 08:34:35;;;;;;;9.32;2.50;;;;;;;41.59;18.42;97167.22;5125277;28;20096;-77
2021/08/07 08:37:01;;;;;;;6.10;1.60;;;;;;;40.32;19.24;97140.88;5129644;28;20039;-76
2021/08/07 08:39:27;;;;;;;33.35;3.53;;;;;;;41.39;18.39;97155.44;5122674;28;20468;-76
2021/08/07 08:41:52;;;;;;;3.60;1.90;;;;;;;41.76;18.09;97157.44;5122408;28;20031;-78
2021/08/07 08:44:18;;;;;;;11.35;3.63;;;;;;;42.14;18.03;97154.31;5096598;28;20031;-78
2021/08/07 08:46:43;;;;;;;6.57;2.63;;;;;;;42.64;17.56;97143.38;5106962;28;20146;-78
2021/08/07 08:49:09;;;;;;;4.80;1.58;;;;;;;42.38;17.83;97148.59;5095416;28;20500;-76
2021/08/07 08:51:35;;;;;;;8.02;2.90;;;;;;;42.72;17.30;97151.09;5125584;28;20102;-77
2021/08/07 08:54:02;;;;;;;9.30;1.63;;;;;;;42.91;17.34;97153.81;5128146;28;20088;-77
2021/08/07 08:56:30;;;;;;;6.00;1.77;;;;;;;43.10;16.91;97148.94;5131188;28;20016;-77
2021/08/07 08:58:56;;;;;;;2.17;1.27;;;;;;;42.99;17.18;97147.47;5131186;28;20555;-77
2021/08/07 09:01:22;;;;;;;3.28;1.50;;;;;;;43.56;16.88;97148.81;5131040;28;20031;-77
2021/08/07 09:03:48;;;;;;;9.77;1.63;;;;;;;41.01;18.85;97141.28;5110448;28;20039;-76
2021/08/07 09:06:14;;;;;;;6.20;1.42;;;;;;;41.17;18.93;97143.91;5102795;28;20085;-77
2021/08/07 09:08:57;;;;;;;3.13;2.03;;;;;;;41.42;18.94;97154.84;5132162;27;20452;-76
2021/08/07 09:11:23;;;;;;;5.45;2.10;;;;;;;40.84;18.88;97151.28;5126007;27;20088;-76
2021/08/07 09:13:49;;;;;;;2.28;1.52;;;;;;;40.31;19.67;97140.03;5102307;28;20031;-77
2021/08/07 09:16:15;;;;;;;6.25;1.42;;;;;;;41.11;19.01;97149.59;5116407;27;20080;-77
2021/08/07 09:18:41;;;;;;;1.67;1.30;;;;;;;41.39;18.30;97147.84;5135850;27;20413;-77
2021/08/07 09:21:17;;;;;;;4.03;1.23;;;;;;;42.43;17.57;97142.03;5135893;27;20107;-77
2021/08/07 09:23:43;;;;;;;1.50;1.40;;;;;;;42.57;17.79;97159.78;5102983;28;20036;-77
2021/08/07 09:26:14;;;;;;;10.07;1.40;;;;;;;40.56;19.00;97156.66;5123282;27;20040;-77
2021/08/07 09:28:50;;;;;;;4.20;1.50;;;;;;;39.79;19.69;97162.31;5134542;27;20031;-76
2021/08/07 09:31:15;;;;;;;18.15;2.10;;;;;;;39.38;20.24;97175.69;5100363;27;20039;-76
2021/08/07 09:33:41;;;;;;;4.07;1.90;;;;;;;41.05;18.73;97162.03;5128826;27;20468;-77
2021/08/07 09:36:06;;;;;;;9.48;1.63;;;;;;;41.86;18.03;97158.16;5122879;27;20507;-77
2021/08/07 09:38:32;;;;;;;2.17;1.45;;;;;;;41.59;18.29;97155.16;5105006;27;20132;-77
2021/08/07 09:41:00;;;;;;;6.18;1.73;;;;;;;39.84;19.93;97146.28;5112936;27;20504;-77
2021/08/07 09:43:29;;;;;;;4.15;1.27;;;;;;;38.88;20.69;97157.13;5135375;27;20054;-77
2021/08/07 09:45:58;;;;;;;10.20;3.10;;;;;;;40.55;19.35;97168.16;5134276;27;20398;-77
2021/08/07 09:48:47;;;;;;;2.38;1.83;;;;;;;41.27;18.78;97155.84;5133922;27;20031;-77
2021/08/07 09:51:17;;;;;;;9.90;3.60;;;;;;;41.95;18.01;97161.94;5108063;27;20021;-77
2021/08/07 09:53:43;;;;;;;2.00;1.58;;;;;;;41.98;18.05;97152.91;5120224;27;20015;-77
2021/08/07 09:56:10;;;;;;;2.97;1.58;;;;;;;41.87;18.30;97156.19;5122324;27;20034;-77
2021/08/07 09:58:36;;;;;;;2.20;1.60;;;;;;;42.45;17.55;97145.38;5112394;28;20052;-77
2021/08/07 10:01:02;;;;;;;1.65;1.35;;;;;;;42.67;17.73;97156.81;5121359;27;20054;-77
2021/08/07 10:03:31;;;;;;;2.13;1.30;;;;;;;41.11;19.02;97143.13;5125040;27;20030;-77
2021/08/07 10:06:18;;;;;;;1.52;1.42;;;;;;;41.94;18.58;97145.38;5133889;27;20023;-77
2021/08/07 10:08:48;;;;;;;3.92;1.50;;;;;;;42.70;17.72;97144.09;5103008;28;20023;-77
2021/08/07 10:11:13;;;;;;;7.80;1.93;;;;;;;43.22;17.01;97138.78;5113854;27;20050;-77
2021/08/07 10:13:40;;;;;;;1.83;1.58;;;;;;;43.41;16.63;97132.25;5125243;27;20477;-77
2021/08/07 10:16:07;;;;;;;5.53;3.28;;;;;;;43.55;16.82;97131.06;5125627;27;20036;-77
2021/08/07 10:18:32;;;;;;;1.88;1.60;;;;;;;44.30;16.12;97140.88;5133268;27;20103;-77
2021/08/07 10:21:03;;;;;;;2.15;1.88;;;;;;;44.68;15.89;97144.94;5112616;28;20028;-77
2021/08/07 10:23:31;;;;;;;1.60;1.50;;;;;;;43.08;17.11;97148.41;5104282;28;20019;-78
2021/08/07 10:25:57;;;;;;;3.80;1.45;;;;;;;44.17;16.36;97132.16;5113063;28;20028;-77
2021/08/07 10:28:23;;;;;;;2.75;1.55;;;;;;;44.38;16.13;97132.47;5122922;27;20026;-77
2021/08/07 10:30:48;;;;;;;2.47;1.38;;;;;;;45.19;15.43;97130.25;5128252;27;20023;-77
2021/08/07 10:33:15;;;;;;;2.65;1.30;;;;;;;43.15;16.87;97129.13;5121537;27;20047;-77
2021/08/07 10:35:42;;;;;;;1.75;1.63;;;;;;;44.02;16.31;97117.56;5134414;27;20027;-77
2021/08/07 10:38:08;;;;;;;3.85;1.40;;;;;;;44.59;15.90;97115.84;5104077;27;20518;-77
2021/08/07 10:40:34;;;;;;;1.40;1.30;;;;;;;44.84;15.87;97123.59;5123929;27;20023;-77
2021/08/07 10:42:59;;;;;;;1.60;1.50;;;;;;;44.80;16.05;97131.03;5100765;28;20024;-77
2021/08/07 10:45:25;;;;;;;6.03;1.65;;;;;;;43.17;17.18;97124.84;5132575;27;20023;-77
2021/08/07 10:47:51;;;;;;;2.47;1.40;;;;;;;42.00;18.32;97121.66;5133246;27;20033;-77
2021/08/07 10:50:27;;;;;;;1.67;1.50;;;;;;;42.96;17.31;97128.34;5124442;27;20511;-77
2021/08/07 10:52:55;;;;;;;4.75;1.23;;;;;;;41.79;18.25;97118.34;5134303;27;20023;-77
2021/08/07 10:55:53;;;;;;;2.78;1.30;;;;;;;42.08;17.81;97123.78;5123590;27;20032;-77
2021/08/07 10:58:36;;;;;;;4.13;1.30;;;;;;;42.92;17.55;97113.22;5095465;28;20081;-77
2021/08/07 11:01:26;;;;;;;2.15;1.27;;;;;;;43.42;16.89;97119.81;5112139;28;20438;-77
2021/08/07 11:04:00;;;;;;;1.60;1.40;;;;;;;44.68;15.69;97111.06;5126901;27;20484;-77
2021/08/07 11:06:38;;;;;;;3.05;1.30;;;;;;;44.19;16.19;97098.81;5133616;27;20114;-78
2021/08/07 11:09:29;;;;;;;4.30;1.90;;;;;;;41.97;18.42;97097.78;5133874;27;20023;-77
2021/08/07 11:12:07;;;;;;;1.10;1.10;;;;;;;41.71;18.49;97088.09;5127250;27;20023;-77
2021/08/07 11:14:35;;;;;;;2.58;1.30;;;;;;;42.32;18.06;97089.91;5132153;27;20043;-77
2021/08/07 11:17:04;;;;;;;3.20;1.50;;;;;;;41.06;18.62;97087.91;5133624;27;20019;-77
2021/08/07 11:19:54;;;;;;;3.75;1.30;;;;;;;42.55;17.59;97086.91;5133431;27;20022;-77
2021/08/07 11:22:44;;;;;;;4.13;1.63;;;;;;;43.65;16.73;97074.47;5132449;27;20070;-77
2021/08/07 11:25:21;;;;;;;1.80;1.40;;;;;;;42.16;17.49;97084.53;5133335;27;20027;-78
2021/08/07 11:30:15;;;;;;;5.95;1.67;;;;;;;42.70;17.31;97091.47;5133544;27;20027;-78
2021/08/07 11:32:41;;;;;;;2.10;1.20;;;;;;;42.66;17.61;97094.06;5122673;27;20046;-77
2021/08/07 11:35:07;;;;;;;1.60;1.50;;;;;;;43.37;16.94;97092.59;5114740;27;20026;-78